sensor_id;sensor_type;location;lat;lon;timestamp;P1;durP1;ratioP1;P2;durP2;ratioP2
69381;SDS011;56560;50.692;12.844;2022-08-19T00:01:54;52.17;;;27.53;;
69381;SDS011;56560;50.692;12.844;2022-08-19T00:04:27;50.05;;;24.80;;
69381;SDS011;56560;50.692;12.844;2022-08-19T00:06:57;49.47;;;24.90;;
69381;SDS011;56560;50.692;12.844;2022-08-19T00:09:24;56.60;;;28.25;;
69381;SDS011;56560;50.692;12.844;2022-08-19T00:11:52;51.53;;;27.05;;
69381;SDS011;56560;50.692;12.844;2022-08-19T00:14:20;52.10;;;26.70;;
69381;SDS011;56560;50.692;12.844;2022-08-19T00:16:47;53.85;;;26.95;;
69381;SDS011;56560;50.692;12.844;2022-08-19T00:19:13;51.33;;;27.27;;
69381;SDS011;56560;50.692;12.844;2022-08-19T00:21:40;49.67;;;24.50;;
69381;SDS011;56560;50.692;12.844;2022-08-19T00:24:07;52.38;;;26.83;;
69381;SDS011;56560;50.692;12.844;2022-08-19T00:26:34;49.57;;;25.83;;
69381;SDS011;56560;50.692;12.844;2022-08-19T00:29:00;50.13;;;26.27;;
69381;SDS011;56560;50.692;12.844;2022-08-19T00:31:26;50.50;;;26.73;;
69381;SDS011;56560;50.692;12.844;2022-08-19T00:33:53;51.30;;;26.85;;
69381;SDS011;56560;50.692;12.844;2022-08-19T00:36:19;48.87;;;25.10;;
69381;SDS011;56560;50.692;12.844;2022-08-19T00:38:45;48.40;;;25.33;;
69381;SDS011;56560;50.692;12.844;2022-08-19T00:41:15;47.55;;;25.13;;
69381;SDS011;56560;50.692;12.844;2022-08-19T00:46:26;50.38;;;26.95;;
69381;SDS011;56560;50.692;12.844;2022-08-19T00:48:52;47.53;;;24.87;;
69381;SDS011;56560;50.692;12.844;2022-08-19T00:51:19;52.15;;;26.52;;
69381;SDS011;56560;50.692;12.844;2022-08-19T00:53:45;49.72;;;26.13;;
69381;SDS011;56560;50.692;12.844;2022-08-19T00:56:10;49.63;;;24.77;;
69381;SDS011;56560;50.692;12.844;2022-08-19T00:58:36;49.28;;;24.08;;
69381;SDS011;56560;50.692;12.844;2022-08-19T01:01:02;51.73;;;26.60;;
69381;SDS011;56560;50.692;12.844;2022-08-19T01:03:30;46.03;;;23.73;;
69381;SDS011;56560;50.692;12.844;2022-08-19T01:05:55;49.22;;;25.83;;
69381;SDS011;56560;50.692;12.844;2022-08-19T01:08:21;48.43;;;25.53;;
69381;SDS011;56560;50.692;12.844;2022-08-19T01:10:52;46.65;;;25.00;;
69381;SDS011;56560;50.692;12.844;2022-08-19T01:13:22;49.83;;;25.88;;
69381;SDS011;56560;50.692;12.844;2022-08-19T01:15:52;52.83;;;26.65;;
69381;SDS011;56560;50.692;12.844;2022-08-19T01:18:30;51.55;;;25.80;;
69381;SDS011;56560;50.692;12.844;2022-08-19T01:21:01;50.40;;;26.85;;
69381;SDS011;56560;50.692;12.844;2022-08-19T01:23:32;48.92;;;25.60;;
69381;SDS011;56560;50.692;12.844;2022-08-19T01:26:17;50.20;;;25.23;;
69381;SDS011;56560;50.692;12.844;2022-08-19T01:28:46;49.72;;;25.40;;
69381;SDS011;56560;50.692;12.844;2022-08-19T01:31:16;50.05;;;25.35;;
69381;SDS011;56560;50.692;12.844;2022-08-19T01:33:44;51.53;;;26.80;;
69381;SDS011;56560;50.692;12.844;2022-08-19T01:36:14;51.25;;;26.45;;
69381;SDS011;56560;50.692;12.844;2022-08-19T01:38:51;51.20;;;26.50;;
69381;SDS011;56560;50.692;12.844;2022-08-19T01:41:17;52.72;;;27.10;;
69381;SDS011;56560;50.692;12.844;2022-08-19T01:43:43;54.07;;;26.90;;
69381;SDS011;56560;50.692;12.844;2022-08-19T01:46:10;49.20;;;25.30;;
69381;SDS011;56560;50.692;12.844;2022-08-19T01:48:37;51.97;;;26.10;;
69381;SDS011;56560;50.692;12.844;2022-08-19T01:51:04;49.85;;;26.52;;
69381;SDS011;56560;50.692;12.844;2022-08-19T01:53:31;45.93;;;23.77;;
69381;SDS011;56560;50.692;12.844;2022-08-19T01:55:57;49.60;;;25.80;;
69381;SDS011;56560;50.692;12.844;2022-08-19T01:58:24;53.80;;;25.38;;
69381;SDS011;56560;50.692;12.844;2022-08-19T02:00:58;46.13;;;24.00;;
69381;SDS011;56560;50.692;12.844;2022-08-19T02:03:23;46.20;;;22.60;;
69381;SDS011;56560;50.692;12.844;2022-08-19T02:05:53;44.78;;;24.45;;
69381;SDS011;56560;50.692;12.844;2022-08-19T02:08:20;45.78;;;23.52;;
69381;SDS011;56560;50.692;12.844;2022-08-19T02:10:46;40.50;;;21.40;;
69381;SDS011;56560;50.692;12.844;2022-08-19T02:13:12;39.92;;;22.35;;
69381;SDS011;56560;50.692;12.844;2022-08-19T02:15:38;46.67;;;24.52;;
69381;SDS011;56560;50.692;12.844;2022-08-19T02:18:04;50.17;;;24.17;;
69381;SDS011;56560;50.692;12.844;2022-08-19T02:20:31;44.78;;;23.40;;
69381;SDS011;56560;50.692;12.844;2022-08-19T02:22:57;43.85;;;23.25;;
69381;SDS011;56560;50.692;12.844;2022-08-19T02:25:22;43.40;;;23.00;;
69381;SDS011;56560;50.692;12.844;2022-08-19T02:27:48;44.28;;;22.38;;
69381;SDS011;56560;50.692;12.844;2022-08-19T02:30:14;42.58;;;22.85;;
69381;SDS011;56560;50.692;12.844;2022-08-19T02:32:42;44.00;;;22.77;;
69381;SDS011;56560;50.692;12.844;2022-08-19T02:35:08;41.70;;;21.80;;
69381;SDS011;56560;50.692;12.844;2022-08-19T02:37:34;42.53;;;21.80;;
69381;SDS011;56560;50.692;12.844;2022-08-19T02:40:18;40.90;;;21.10;;
69381;SDS011;56560;50.692;12.844;2022-08-19T02:42:44;39.42;;;21.27;;
69381;SDS011;56560;50.692;12.844;2022-08-19T02:45:11;39.50;;;21.43;;
69381;SDS011;56560;50.692;12.844;2022-08-19T02:47:38;40.55;;;21.80;;
69381;SDS011;56560;50.692;12.844;2022-08-19T02:50:04;37.97;;;20.40;;
69381;SDS011;56560;50.692;12.844;2022-08-19T02:52:31;40.13;;;22.23;;
69381;SDS011;56560;50.692;12.844;2022-08-19T02:54:58;40.90;;;22.45;;
69381;SDS011;56560;50.692;12.844;2022-08-19T02:57:25;39.40;;;21.73;;
69381;SDS011;56560;50.692;12.844;2022-08-19T02:59:51;39.22;;;21.27;;
69381;SDS011;56560;50.692;12.844;2022-08-19T03:02:17;40.88;;;22.45;;
69381;SDS011;56560;50.692;12.844;2022-08-19T03:04:43;41.03;;;22.37;;
69381;SDS011;56560;50.692;12.844;2022-08-19T03:07:09;41.30;;;23.02;;
69381;SDS011;56560;50.692;12.844;2022-08-19T03:09:38;43.03;;;22.60;;
69381;SDS011;56560;50.692;12.844;2022-08-19T03:12:04;45.23;;;22.43;;
69381;SDS011;56560;50.692;12.844;2022-08-19T03:14:30;42.72;;;22.30;;
69381;SDS011;56560;50.692;12.844;2022-08-19T03:16:57;40.70;;;20.48;;
69381;SDS011;56560;50.692;12.844;2022-08-19T03:19:23;40.78;;;21.40;;
69381;SDS011;56560;50.692;12.844;2022-08-19T03:21:49;42.33;;;21.53;;
69381;SDS011;56560;50.692;12.844;2022-08-19T03:24:16;46.67;;;21.95;;
69381;SDS011;56560;50.692;12.844;2022-08-19T03:26:45;42.17;;;21.60;;
69381;SDS011;56560;50.692;12.844;2022-08-19T03:29:13;42.75;;;19.67;;
69381;SDS011;56560;50.692;12.844;2022-08-19T03:31:40;39.35;;;20.65;;
69381;SDS011;56560;50.692;12.844;2022-08-19T03:34:08;40.70;;;20.23;;
69381;SDS011;56560;50.692;12.844;2022-08-19T03:36:36;42.50;;;21.92;;
69381;SDS011;56560;50.692;12.844;2022-08-19T03:39:03;44.08;;;22.17;;
69381;SDS011;56560;50.692;12.844;2022-08-19T03:41:30;41.05;;;20.10;;
69381;SDS011;56560;50.692;12.844;2022-08-19T03:43:57;43.05;;;20.70;;
69381;SDS011;56560;50.692;12.844;2022-08-19T03:46:25;45.13;;;22.17;;
69381;SDS011;56560;50.692;12.844;2022-08-19T03:48:56;45.08;;;21.13;;
69381;SDS011;56560;50.692;12.844;2022-08-19T03:51:25;46.47;;;22.75;;
69381;SDS011;56560;50.692;12.844;2022-08-19T03:53:53;41.50;;;21.63;;
69381;SDS011;56560;50.692;12.844;2022-08-19T03:56:20;45.63;;;20.63;;
69381;SDS011;56560;50.692;12.844;2022-08-19T03:58:46;44.70;;;21.03;;
69381;SDS011;56560;50.692;12.844;2022-08-19T04:01:13;46.35;;;22.08;;
69381;SDS011;56560;50.692;12.844;2022-08-19T04:03:43;47.75;;;21.75;;
69381;SDS011;56560;50.692;12.844;2022-08-19T04:06:15;50.80;;;21.80;;
69381;SDS011;56560;50.692;12.844;2022-08-19T04:08:44;51.90;;;22.33;;
69381;SDS011;56560;50.692;12.844;2022-08-19T04:11:13;55.58;;;22.27;;
69381;SDS011;56560;50.692;12.844;2022-08-19T04:13:41;50.55;;;21.45;;
69381;SDS011;56560;50.692;12.844;2022-08-19T04:16:09;56.72;;;22.65;;
69381;SDS011;56560;50.692;12.844;2022-08-19T04:18:36;59.00;;;23.45;;
69381;SDS011;56560;50.692;12.844;2022-08-19T04:21:04;58.97;;;22.33;;
69381;SDS011;56560;50.692;12.844;2022-08-19T04:23:31;63.88;;;22.65;;
69381;SDS011;56560;50.692;12.844;2022-08-19T04:25:58;57.72;;;20.13;;
69381;SDS011;56560;50.692;12.844;2022-08-19T04:28:24;72.13;;;23.42;;
69381;SDS011;56560;50.692;12.844;2022-08-19T04:30:51;61.80;;;23.03;;
69381;SDS011;56560;50.692;12.844;2022-08-19T04:33:20;65.53;;;20.90;;
69381;SDS011;56560;50.692;12.844;2022-08-19T04:35:50;66.72;;;22.52;;
69381;SDS011;56560;50.692;12.844;2022-08-19T04:38:17;69.38;;;22.27;;
69381;SDS011;56560;50.692;12.844;2022-08-19T04:40:45;70.18;;;23.00;;
69381;SDS011;56560;50.692;12.844;2022-08-19T04:43:31;53.27;;;19.77;;
69381;SDS011;56560;50.692;12.844;2022-08-19T04:45:58;48.50;;;19.05;;
69381;SDS011;56560;50.692;12.844;2022-08-19T04:48:29;44.33;;;17.92;;
69381;SDS011;56560;50.692;12.844;2022-08-19T04:50:55;45.00;;;17.93;;
69381;SDS011;56560;50.692;12.844;2022-08-19T04:53:26;48.78;;;19.25;;
69381;SDS011;56560;50.692;12.844;2022-08-19T04:55:56;46.35;;;17.77;;
69381;SDS011;56560;50.692;12.844;2022-08-19T04:58:26;43.85;;;16.67;;
69381;SDS011;56560;50.692;12.844;2022-08-19T05:00:52;42.67;;;18.25;;
69381;SDS011;56560;50.692;12.844;2022-08-19T05:03:19;43.63;;;17.23;;
69381;SDS011;56560;50.692;12.844;2022-08-19T05:05:46;43.38;;;17.75;;
69381;SDS011;56560;50.692;12.844;2022-08-19T05:08:16;40.53;;;17.52;;
69381;SDS011;56560;50.692;12.844;2022-08-19T05:10:55;40.45;;;17.70;;
69381;SDS011;56560;50.692;12.844;2022-08-19T05:13:22;45.15;;;17.80;;
69381;SDS011;56560;50.692;12.844;2022-08-19T05:15:55;37.63;;;16.17;;
69381;SDS011;56560;50.692;12.844;2022-08-19T05:18:21;39.70;;;17.50;;
69381;SDS011;56560;50.692;12.844;2022-08-19T05:21:08;40.05;;;17.10;;
69381;SDS011;56560;50.692;12.844;2022-08-19T05:23:54;36.65;;;16.75;;
69381;SDS011;56560;50.692;12.844;2022-08-19T05:26:20;37.00;;;16.50;;
69381;SDS011;56560;50.692;12.844;2022-08-19T05:28:46;39.45;;;16.85;;
69381;SDS011;56560;50.692;12.844;2022-08-19T05:31:12;38.75;;;16.90;;
69381;SDS011;56560;50.692;12.844;2022-08-19T05:33:38;35.23;;;16.40;;
69381;SDS011;56560;50.692;12.844;2022-08-19T05:36:05;35.25;;;15.38;;
69381;SDS011;56560;50.692;12.844;2022-08-19T05:38:32;34.25;;;15.77;;
69381;SDS011;56560;50.692;12.844;2022-08-19T05:40:58;35.57;;;16.53;;
69381;SDS011;56560;50.692;12.844;2022-08-19T05:43:24;36.97;;;16.63;;
69381;SDS011;56560;50.692;12.844;2022-08-19T05:45:50;34.88;;;16.15;;
69381;SDS011;56560;50.692;12.844;2022-08-19T05:48:16;36.17;;;16.27;;
69381;SDS011;56560;50.692;12.844;2022-08-19T05:50:45;33.22;;;15.48;;
69381;SDS011;56560;50.692;12.844;2022-08-19T05:53:11;31.90;;;15.60;;
69381;SDS011;56560;50.692;12.844;2022-08-19T05:55:38;33.03;;;15.45;;
69381;SDS011;56560;50.692;12.844;2022-08-19T05:58:04;33.40;;;15.70;;
69381;SDS011;56560;50.692;12.844;2022-08-19T06:00:32;35.65;;;15.57;;
69381;SDS011;56560;50.692;12.844;2022-08-19T06:02:59;35.10;;;16.20;;
69381;SDS011;56560;50.692;12.844;2022-08-19T06:05:28;37.78;;;16.83;;
69381;SDS011;56560;50.692;12.844;2022-08-19T06:07:54;39.53;;;17.05;;
69381;SDS011;56560;50.692;12.844;2022-08-19T06:10:20;43.67;;;17.93;;
69381;SDS011;56560;50.692;12.844;2022-08-19T06:12:47;44.85;;;18.05;;
69381;SDS011;56560;50.692;12.844;2022-08-19T06:15:13;45.38;;;18.42;;
69381;SDS011;56560;50.692;12.844;2022-08-19T06:17:39;45.22;;;18.08;;
69381;SDS011;56560;50.692;12.844;2022-08-19T06:20:07;45.03;;;18.23;;
69381;SDS011;56560;50.692;12.844;2022-08-19T06:22:44;47.38;;;19.08;;
69381;SDS011;56560;50.692;12.844;2022-08-19T06:25:12;46.72;;;18.88;;
69381;SDS011;56560;50.692;12.844;2022-08-19T06:27:39;55.78;;;20.23;;
69381;SDS011;56560;50.692;12.844;2022-08-19T06:30:05;50.50;;;19.30;;
69381;SDS011;56560;50.692;12.844;2022-08-19T06:32:31;55.20;;;20.37;;
69381;SDS011;56560;50.692;12.844;2022-08-19T06:34:57;50.97;;;19.17;;
69381;SDS011;56560;50.692;12.844;2022-08-19T06:37:23;51.03;;;19.10;;
69381;SDS011;56560;50.692;12.844;2022-08-19T06:39:49;48.90;;;18.73;;
69381;SDS011;56560;50.692;12.844;2022-08-19T06:42:15;41.70;;;16.83;;
69381;SDS011;56560;50.692;12.844;2022-08-19T06:44:43;38.78;;;15.25;;
69381;SDS011;56560;50.692;12.844;2022-08-19T06:47:14;37.28;;;15.85;;
69381;SDS011;56560;50.692;12.844;2022-08-19T06:49:42;33.67;;;15.27;;
69381;SDS011;56560;50.692;12.844;2022-08-19T06:52:08;28.40;;;13.35;;
69381;SDS011;56560;50.692;12.844;2022-08-19T06:54:36;25.42;;;11.00;;
69381;SDS011;56560;50.692;12.844;2022-08-19T06:57:03;23.77;;;11.70;;
69381;SDS011;56560;50.692;12.844;2022-08-19T06:59:30;28.75;;;12.63;;
69381;SDS011;56560;50.692;12.844;2022-08-19T07:01:58;25.60;;;11.43;;
69381;SDS011;56560;50.692;12.844;2022-08-19T07:04:27;26.38;;;12.13;;
69381;SDS011;56560;50.692;12.844;2022-08-19T07:07:01;26.77;;;12.18;;
69381;SDS011;56560;50.692;12.844;2022-08-19T07:09:39;25.60;;;11.90;;
69381;SDS011;56560;50.692;12.844;2022-08-19T07:12:07;26.35;;;12.15;;
69381;SDS011;56560;50.692;12.844;2022-08-19T07:14:44;23.92;;;10.40;;
69381;SDS011;56560;50.692;12.844;2022-08-19T07:17:11;25.73;;;11.75;;
69381;SDS011;56560;50.692;12.844;2022-08-19T07:19:38;26.67;;;12.30;;
69381;SDS011;56560;50.692;12.844;2022-08-19T07:22:05;25.10;;;11.97;;
69381;SDS011;56560;50.692;12.844;2022-08-19T07:24:32;27.10;;;11.48;;
69381;SDS011;56560;50.692;12.844;2022-08-19T07:27:00;26.75;;;11.65;;
69381;SDS011;56560;50.692;12.844;2022-08-19T07:32:00;26.38;;;11.80;;
69381;SDS011;56560;50.692;12.844;2022-08-19T07:34:27;24.17;;;11.50;;
69381;SDS011;56560;50.692;12.844;2022-08-19T07:36:54;22.85;;;10.95;;
69381;SDS011;56560;50.692;12.844;2022-08-19T07:39:28;23.25;;;11.57;;
69381;SDS011;56560;50.692;12.844;2022-08-19T07:42:04;25.70;;;11.70;;
69381;SDS011;56560;50.692;12.844;2022-08-19T07:44:33;26.48;;;12.00;;
69381;SDS011;56560;50.692;12.844;2022-08-19T07:46:59;24.67;;;11.30;;
69381;SDS011;56560;50.692;12.844;2022-08-19T07:49:26;23.25;;;11.40;;
69381;SDS011;56560;50.692;12.844;2022-08-19T07:51:54;22.23;;;10.00;;
69381;SDS011;56560;50.692;12.844;2022-08-19T07:54:27;20.67;;;10.52;;
69381;SDS011;56560;50.692;12.844;2022-08-19T07:56:55;21.77;;;10.50;;
69381;SDS011;56560;50.692;12.844;2022-08-19T07:59:21;20.17;;;10.30;;
69381;SDS011;56560;50.692;12.844;2022-08-19T08:04:41;17.50;;;8.93;;
69381;SDS011;56560;50.692;12.844;2022-08-19T08:07:26;17.42;;;9.60;;
69381;SDS011;56560;50.692;12.844;2022-08-19T08:10:11;17.30;;;8.85;;
69381;SDS011;56560;50.692;12.844;2022-08-19T08:12:49;15.23;;;7.93;;
69381;SDS011;56560;50.692;12.844;2022-08-19T08:15:21;15.32;;;8.38;;
69381;SDS011;56560;50.692;12.844;2022-08-19T08:17:47;15.68;;;7.85;;
69381;SDS011;56560;50.692;12.844;2022-08-19T08:20:19;16.63;;;8.25;;
69381;SDS011;56560;50.692;12.844;2022-08-19T08:22:46;17.70;;;8.13;;
69381;SDS011;56560;50.692;12.844;2022-08-19T08:25:30;16.48;;;8.82;;
69381;SDS011;56560;50.692;12.844;2022-08-19T08:27:56;17.13;;;8.68;;
69381;SDS011;56560;50.692;12.844;2022-08-19T08:30:25;17.98;;;9.32;;
69381;SDS011;56560;50.692;12.844;2022-08-19T08:32:53;17.83;;;9.23;;
69381;SDS011;56560;50.692;12.844;2022-08-19T08:35:20;20.70;;;10.93;;
69381;SDS011;56560;50.692;12.844;2022-08-19T08:37:47;19.52;;;10.23;;
69381;SDS011;56560;50.692;12.844;2022-08-19T08:40:33;21.80;;;10.75;;
69381;SDS011;56560;50.692;12.844;2022-08-19T08:43:28;19.75;;;10.30;;
69381;SDS011;56560;50.692;12.844;2022-08-19T08:51:27;24.67;;;11.52;;
69381;SDS011;56560;50.692;12.844;2022-08-19T08:53:58;27.45;;;13.13;;
69381;SDS011;56560;50.692;12.844;2022-08-19T08:56:24;28.42;;;13.98;;
69381;SDS011;56560;50.692;12.844;2022-08-19T08:59:05;29.47;;;14.17;;
69381;SDS011;56560;50.692;12.844;2022-08-19T09:01:49;31.50;;;15.23;;
69381;SDS011;56560;50.692;12.844;2022-08-19T09:04:15;35.78;;;16.80;;
69381;SDS011;56560;50.692;12.844;2022-08-19T09:06:51;36.90;;;17.02;;
69381;SDS011;56560;50.692;12.844;2022-08-19T09:09:30;34.80;;;16.17;;
69381;SDS011;56560;50.692;12.844;2022-08-19T09:12:05;34.92;;;17.13;;
69381;SDS011;56560;50.692;12.844;2022-08-19T09:17:13;35.10;;;17.13;;
69381;SDS011;56560;50.692;12.844;2022-08-19T09:19:49;38.92;;;18.48;;
69381;SDS011;56560;50.692;12.844;2022-08-19T09:22:20;37.50;;;17.83;;
69381;SDS011;56560;50.692;12.844;2022-08-19T09:24:49;35.97;;;17.38;;
69381;SDS011;56560;50.692;12.844;2022-08-19T09:27:17;37.63;;;18.27;;
69381;SDS011;56560;50.692;12.844;2022-08-19T09:29:43;43.47;;;20.27;;
69381;SDS011;56560;50.692;12.844;2022-08-19T09:32:09;43.37;;;21.00;;
69381;SDS011;56560;50.692;12.844;2022-08-19T09:34:35;46.90;;;21.35;;
69381;SDS011;56560;50.692;12.844;2022-08-19T09:37:01;44.30;;;20.43;;
69381;SDS011;56560;50.692;12.844;2022-08-19T09:39:27;48.13;;;22.03;;
69381;SDS011;56560;50.692;12.844;2022-08-19T09:44:34;50.17;;;23.38;;
69381;SDS011;56560;50.692;12.844;2022-08-19T09:47:00;50.10;;;21.80;;
69381;SDS011;56560;50.692;12.844;2022-08-19T09:49:25;51.03;;;23.85;;
69381;SDS011;56560;50.692;12.844;2022-08-19T09:51:51;46.67;;;22.70;;
69381;SDS011;56560;50.692;12.844;2022-08-19T09:54:21;48.65;;;22.33;;
69381;SDS011;56560;50.692;12.844;2022-08-19T09:56:48;53.72;;;23.73;;
69381;SDS011;56560;50.692;12.844;2022-08-19T09:59:14;57.97;;;25.20;;
69381;SDS011;56560;50.692;12.844;2022-08-19T10:01:39;49.10;;;22.77;;
69381;SDS011;56560;50.692;12.844;2022-08-19T10:04:05;55.03;;;24.25;;
69381;SDS011;56560;50.692;12.844;2022-08-19T10:06:35;55.20;;;24.53;;
69381;SDS011;56560;50.692;12.844;2022-08-19T10:09:03;54.83;;;25.40;;
69381;SDS011;56560;50.692;12.844;2022-08-19T10:11:31;50.60;;;24.52;;
69381;SDS011;56560;50.692;12.844;2022-08-19T10:13:58;52.85;;;24.08;;
69381;SDS011;56560;50.692;12.844;2022-08-19T10:16:25;46.70;;;22.65;;
69381;SDS011;56560;50.692;12.844;2022-08-19T10:18:51;47.93;;;22.80;;
69381;SDS011;56560;50.692;12.844;2022-08-19T10:21:18;43.40;;;22.35;;
69381;SDS011;56560;50.692;12.844;2022-08-19T10:23:47;46.80;;;23.48;;
69381;SDS011;56560;50.692;12.844;2022-08-19T10:26:15;46.25;;;23.92;;
69381;SDS011;56560;50.692;12.844;2022-08-19T10:28:43;54.00;;;26.77;;
69381;SDS011;56560;50.692;12.844;2022-08-19T10:31:10;53.37;;;26.07;;
69381;SDS011;56560;50.692;12.844;2022-08-19T10:33:50;48.90;;;24.42;;
69381;SDS011;56560;50.692;12.844;2022-08-19T10:36:22;49.00;;;23.52;;
69381;SDS011;56560;50.692;12.844;2022-08-19T10:38:50;51.80;;;25.30;;
69381;SDS011;56560;50.692;12.844;2022-08-19T10:41:18;52.85;;;27.10;;
69381;SDS011;56560;50.692;12.844;2022-08-19T10:43:56;51.40;;;26.27;;
69381;SDS011;56560;50.692;12.844;2022-08-19T10:46:25;50.33;;;25.55;;
69381;SDS011;56560;50.692;12.844;2022-08-19T10:48:53;52.92;;;26.60;;
69381;SDS011;56560;50.692;12.844;2022-08-19T10:51:19;54.07;;;26.60;;
69381;SDS011;56560;50.692;12.844;2022-08-19T10:54:05;53.22;;;25.30;;
69381;SDS011;56560;50.692;12.844;2022-08-19T10:56:31;48.58;;;24.42;;
69381;SDS011;56560;50.692;12.844;2022-08-19T10:59:27;45.22;;;23.05;;
69381;SDS011;56560;50.692;12.844;2022-08-19T11:01:58;43.40;;;22.00;;
69381;SDS011;56560;50.692;12.844;2022-08-19T11:04:27;49.93;;;23.67;;
69381;SDS011;56560;50.692;12.844;2022-08-19T11:06:53;43.80;;;21.27;;
69381;SDS011;56560;50.692;12.844;2022-08-19T11:09:20;35.20;;;17.73;;
69381;SDS011;56560;50.692;12.844;2022-08-19T11:11:49;36.87;;;18.60;;
69381;SDS011;56560;50.692;12.844;2022-08-19T11:14:18;37.28;;;18.40;;
69381;SDS011;56560;50.692;12.844;2022-08-19T11:16:45;34.53;;;17.58;;
69381;SDS011;56560;50.692;12.844;2022-08-19T11:19:14;34.75;;;17.75;;
69381;SDS011;56560;50.692;12.844;2022-08-19T11:21:44;46.97;;;21.98;;
69381;SDS011;56560;50.692;12.844;2022-08-19T11:24:23;47.47;;;21.87;;
69381;SDS011;56560;50.692;12.844;2022-08-19T11:26:50;51.58;;;22.92;;
69381;SDS011;56560;50.692;12.844;2022-08-19T11:29:22;51.75;;;23.23;;
69381;SDS011;56560;50.692;12.844;2022-08-19T11:31:52;54.55;;;23.88;;
69381;SDS011;56560;50.692;12.844;2022-08-19T11:34:19;58.30;;;25.60;;
69381;SDS011;56560;50.692;12.844;2022-08-19T11:36:47;51.93;;;23.67;;
69381;SDS011;56560;50.692;12.844;2022-08-19T11:39:16;53.22;;;24.60;;
69381;SDS011;56560;50.692;12.844;2022-08-19T11:41:43;55.75;;;24.92;;
69381;SDS011;56560;50.692;12.844;2022-08-19T11:44:09;55.38;;;23.85;;
69381;SDS011;56560;50.692;12.844;2022-08-19T11:46:36;51.30;;;23.37;;
69381;SDS011;56560;50.692;12.844;2022-08-19T11:49:03;43.13;;;20.00;;
69381;SDS011;56560;50.692;12.844;2022-08-19T11:51:32;44.08;;;21.17;;
69381;SDS011;56560;50.692;12.844;2022-08-19T11:53:59;41.35;;;19.80;;
69381;SDS011;56560;50.692;12.844;2022-08-19T11:56:25;42.83;;;20.17;;
69381;SDS011;56560;50.692;12.844;2022-08-19T11:58:52;38.10;;;18.47;;
69381;SDS011;56560;50.692;12.844;2022-08-19T12:01:19;36.08;;;17.67;;
69381;SDS011;56560;50.692;12.844;2022-08-19T12:03:47;34.08;;;16.25;;
69381;SDS011;56560;50.692;12.844;2022-08-19T12:06:16;39.33;;;18.40;;
69381;SDS011;56560;50.692;12.844;2022-08-19T12:08:44;44.42;;;18.92;;
69381;SDS011;56560;50.692;12.844;2022-08-19T12:11:10;53.17;;;20.83;;
69381;SDS011;56560;50.692;12.844;2022-08-19T12:13:38;51.42;;;21.67;;
69381;SDS011;56560;50.692;12.844;2022-08-19T12:16:12;52.83;;;22.80;;
69381;SDS011;56560;50.692;12.844;2022-08-19T12:18:40;51.88;;;22.92;;
69381;SDS011;56560;50.692;12.844;2022-08-19T12:21:08;56.95;;;23.95;;
69381;SDS011;56560;50.692;12.844;2022-08-19T12:23:36;54.90;;;22.83;;
69381;SDS011;56560;50.692;12.844;2022-08-19T12:26:02;52.35;;;23.17;;
69381;SDS011;56560;50.692;12.844;2022-08-19T12:28:29;57.40;;;24.33;;
69381;SDS011;56560;50.692;12.844;2022-08-19T12:30:55;56.78;;;23.55;;
69381;SDS011;56560;50.692;12.844;2022-08-19T12:33:22;57.30;;;23.77;;
69381;SDS011;56560;50.692;12.844;2022-08-19T12:35:50;56.07;;;23.90;;
69381;SDS011;56560;50.692;12.844;2022-08-19T12:38:16;58.38;;;24.73;;
69381;SDS011;56560;50.692;12.844;2022-08-19T12:40:46;70.90;;;26.65;;
69381;SDS011;56560;50.692;12.844;2022-08-19T12:43:14;65.75;;;26.15;;
69381;SDS011;56560;50.692;12.844;2022-08-19T12:45:43;67.82;;;27.33;;
69381;SDS011;56560;50.692;12.844;2022-08-19T12:48:09;69.70;;;25.37;;
69381;SDS011;56560;50.692;12.844;2022-08-19T12:50:35;70.00;;;26.98;;
69381;SDS011;56560;50.692;12.844;2022-08-19T12:53:03;71.82;;;28.00;;
69381;SDS011;56560;50.692;12.844;2022-08-19T12:55:29;81.45;;;28.60;;
69381;SDS011;56560;50.692;12.844;2022-08-19T12:57:55;73.10;;;26.70;;
69381;SDS011;56560;50.692;12.844;2022-08-19T13:00:21;72.28;;;26.73;;
69381;SDS011;56560;50.692;12.844;2022-08-19T13:02:49;79.20;;;28.25;;
69381;SDS011;56560;50.692;12.844;2022-08-19T13:05:17;87.80;;;28.30;;
69381;SDS011;56560;50.692;12.844;2022-08-19T13:07:48;80.72;;;28.08;;
69381;SDS011;56560;50.692;12.844;2022-08-19T13:10:16;88.68;;;30.08;;
69381;SDS011;56560;50.692;12.844;2022-08-19T13:12:45;100.75;;;30.85;;
69381;SDS011;56560;50.692;12.844;2022-08-19T13:15:13;84.53;;;29.25;;
69381;SDS011;56560;50.692;12.844;2022-08-19T13:17:39;118.55;;;31.40;;
69381;SDS011;56560;50.692;12.844;2022-08-19T13:20:09;72.88;;;27.67;;
69381;SDS011;56560;50.692;12.844;2022-08-19T13:22:36;89.22;;;29.48;;
69381;SDS011;56560;50.692;12.844;2022-08-19T13:25:03;80.35;;;29.63;;
69381;SDS011;56560;50.692;12.844;2022-08-19T13:27:30;118.30;;;31.05;;
69381;SDS011;56560;50.692;12.844;2022-08-19T13:29:56;99.10;;;30.67;;
69381;SDS011;56560;50.692;12.844;2022-08-19T13:32:41;124.22;;;30.20;;
69381;SDS011;56560;50.692;12.844;2022-08-19T13:35:25;105.05;;;28.95;;
69381;SDS011;56560;50.692;12.844;2022-08-19T13:37:51;91.40;;;29.63;;
69381;SDS011;56560;50.692;12.844;2022-08-19T13:40:18;106.05;;;31.50;;
69381;SDS011;56560;50.692;12.844;2022-08-19T13:42:48;94.35;;;32.80;;
69381;SDS011;56560;50.692;12.844;2022-08-19T13:45:16;91.13;;;29.65;;
69381;SDS011;56560;50.692;12.844;2022-08-19T13:47:48;85.50;;;30.13;;
69381;SDS011;56560;50.692;12.844;2022-08-19T13:50:16;92.33;;;30.90;;
69381;SDS011;56560;50.692;12.844;2022-08-19T13:52:44;100.75;;;32.70;;
69381;SDS011;56560;50.692;12.844;2022-08-19T13:55:11;87.82;;;31.75;;
69381;SDS011;56560;50.692;12.844;2022-08-19T13:57:37;89.63;;;31.13;;
69381;SDS011;56560;50.692;12.844;2022-08-19T14:00:04;84.32;;;30.40;;
69381;SDS011;56560;50.692;12.844;2022-08-19T14:02:32;89.33;;;33.33;;
69381;SDS011;56560;50.692;12.844;2022-08-19T14:04:58;91.65;;;32.67;;
69381;SDS011;56560;50.692;12.844;2022-08-19T14:07:24;89.80;;;32.53;;
69381;SDS011;56560;50.692;12.844;2022-08-19T14:09:50;80.78;;;28.67;;
69381;SDS011;56560;50.692;12.844;2022-08-19T14:12:18;79.93;;;31.10;;
69381;SDS011;56560;50.692;12.844;2022-08-19T14:14:47;81.35;;;31.92;;
69381;SDS011;56560;50.692;12.844;2022-08-19T14:17:13;83.82;;;30.20;;
69381;SDS011;56560;50.692;12.844;2022-08-19T14:19:40;78.77;;;30.77;;
69381;SDS011;56560;50.692;12.844;2022-08-19T14:22:06;78.93;;;30.75;;
69381;SDS011;56560;50.692;12.844;2022-08-19T14:24:32;80.15;;;31.20;;
69381;SDS011;56560;50.692;12.844;2022-08-19T14:26:58;74.57;;;31.07;;
69381;SDS011;56560;50.692;12.844;2022-08-19T14:29:25;78.68;;;29.65;;
69381;SDS011;56560;50.692;12.844;2022-08-19T14:31:51;75.68;;;28.17;;
69381;SDS011;56560;50.692;12.844;2022-08-19T14:34:17;77.10;;;30.03;;
69381;SDS011;56560;50.692;12.844;2022-08-19T14:36:43;83.55;;;30.95;;